createdAt,value
2017-09-11T00:14:05.598Z,7.85
2017-09-11T00:16:32.125Z,8.25
2017-09-11T00:19:07.678Z,7.50
2017-09-11T00:21:34.834Z,7.68
2017-09-11T00:26:42.875Z,7.12
2017-09-11T00:34:32.676Z,6.37
2017-09-11T00:37:06.274Z,6.05
2017-09-11T00:39:37.226Z,6.25
2017-09-11T00:42:15.021Z,7.45
2017-09-11T00:44:51.704Z,7.12
2017-09-11T00:47:18.430Z,6.53
2017-09-11T00:52:23.515Z,6.05
2017-09-11T00:54:53.015Z,5.95
2017-09-11T00:57:20.059Z,6.05
2017-09-11T01:02:35.040Z,7.28
2017-09-11T01:05:09.271Z,7.30
2017-09-11T01:10:19.340Z,6.80
2017-09-11T01:12:54.575Z,6.45
2017-09-11T01:15:22.521Z,7.12
2017-09-11T01:20:27.595Z,8.05
2017-09-11T01:25:37.368Z,7.75
2017-09-11T01:28:13.017Z,8.02
2017-09-11T01:30:40.654Z,7.90
2017-09-11T01:33:10.181Z,7.55
2017-09-11T01:43:38.021Z,7.18
2017-09-11T06:10:00.448Z,4.83
2017-09-11T06:12:26.686Z,5.00
2017-09-11T06:14:52.927Z,5.00
2017-09-11T06:17:19.163Z,4.67
2017-09-11T06:19:45.367Z,5.30
2017-09-11T06:22:11.603Z,4.63
2017-09-11T06:24:37.834Z,5.47
2017-09-11T06:27:04.061Z,4.43
2017-09-11T06:29:30.219Z,5.10
2017-09-11T06:31:56.408Z,5.10
2017-09-11T06:34:22.648Z,4.90
2017-09-11T06:36:48.883Z,4.77
2017-09-11T06:39:15.116Z,4.53
2017-09-11T06:41:41.348Z,4.37
2017-09-11T06:44:07.579Z,5.20
2017-09-11T06:46:33.793Z,4.40
2017-09-11T06:49:00.028Z,4.37
2017-09-11T06:51:26.255Z,4.47
2017-09-11T06:53:52.477Z,4.90
2017-09-11T06:56:18.729Z,6.00
2017-09-11T06:58:44.961Z,5.73
2017-09-11T07:01:11.183Z,4.63
2017-09-11T07:03:37.397Z,4.70
2017-09-11T07:06:03.632Z,5.67
2017-09-11T07:08:29.872Z,6.23
2017-09-11T07:10:56.089Z,5.00
2017-09-11T07:13:22.317Z,4.67
2017-09-11T07:15:48.484Z,5.03
2017-09-11T07:18:14.638Z,4.30
2017-09-11T07:20:40.812Z,5.13
2017-09-11T07:23:07.035Z,4.67
2017-09-11T07:25:33.277Z,5.27
2017-09-11T07:27:59.495Z,4.47
2017-09-11T07:30:25.743Z,4.43
2017-09-11T07:32:51.945Z,4.23
2017-09-11T07:35:18.179Z,5.70
2017-09-11T07:37:44.363Z,5.97
2017-09-11T07:40:10.538Z,5.77
2017-09-11T07:42:36.761Z,5.60
2017-09-11T07:45:03.286Z,5.43
2017-09-11T07:47:29.543Z,5.10
2017-09-11T07:49:55.767Z,5.40
2017-09-11T07:52:22.000Z,4.60
2017-09-11T07:54:48.225Z,5.23
2017-09-11T07:57:14.466Z,4.37
2017-09-11T07:59:40.676Z,5.53
2017-09-11T08:02:06.836Z,4.60
2017-09-11T08:04:32.981Z,4.10
2017-09-11T08:06:59.116Z,3.83
2017-09-11T08:09:25.272Z,4.53
2017-09-11T08:11:51.435Z,3.13
2017-09-11T08:14:17.601Z,3.67
2017-09-11T08:16:43.766Z,6.50
2017-09-11T08:19:09.921Z,3.37
2017-09-11T08:21:36.084Z,2.93
2017-09-11T08:24:02.229Z,3.50
2017-09-11T08:26:28.393Z,3.27
2017-09-11T08:28:54.557Z,2.83
2017-09-11T08:31:20.719Z,3.37
2017-09-11T08:33:46.877Z,3.40
2017-09-11T08:36:13.049Z,3.70
2017-09-11T08:38:39.210Z,3.97
2017-09-11T08:41:05.365Z,2.80
2017-09-11T08:43:31.542Z,3.37
2017-09-11T08:46:00.870Z,3.50
2017-09-11T08:48:27.032Z,3.33
2017-09-11T08:50:53.191Z,4.00
2017-09-11T08:53:19.348Z,4.70
2017-09-11T08:55:45.505Z,3.10
2017-09-11T08:58:11.677Z,2.93
2017-09-11T09:00:37.835Z,3.47
2017-09-11T09:03:03.994Z,3.40
2017-09-11T09:05:30.147Z,3.93
2017-09-11T09:07:56.302Z,4.00
2017-09-11T09:10:22.446Z,3.80
2017-09-11T09:12:48.602Z,3.37
2017-09-11T09:15:14.782Z,2.47
2017-09-11T09:17:40.962Z,3.53
2017-09-11T09:20:07.118Z,3.73
2017-09-11T09:22:33.283Z,2.47
2017-09-11T09:24:59.445Z,3.73
2017-09-11T09:27:25.648Z,3.83
2017-09-11T09:29:51.814Z,3.73
2017-09-11T09:32:17.980Z,4.00
2017-09-11T09:34:44.142Z,3.30
2017-09-11T09:37:10.335Z,3.67
2017-09-11T09:39:36.488Z,3.37
2017-09-11T09:42:02.655Z,3.33
2017-09-11T09:44:28.808Z,3.30
2017-09-11T09:46:54.977Z,3.27
2017-09-11T09:49:21.166Z,2.73
2017-09-11T09:51:47.354Z,2.83
2017-09-11T09:54:13.525Z,2.93
2017-09-11T09:56:39.714Z,3.00
2017-09-11T09:59:05.895Z,3.33
2017-09-11T10:01:32.138Z,3.83
2017-09-11T10:03:59.550Z,5.00
2017-09-11T10:06:25.732Z,3.10
2017-09-11T10:08:51.923Z,2.93
2017-09-11T10:11:18.093Z,3.00
2017-09-11T10:13:44.257Z,3.30
2017-09-11T10:16:10.422Z,3.90
2017-09-11T10:18:36.575Z,3.00
2017-09-11T10:21:02.754Z,3.37
2017-09-11T10:23:28.908Z,3.37
2017-09-11T10:25:55.062Z,4.73
2017-09-11T10:28:21.217Z,4.60
2017-09-11T10:30:47.393Z,3.43
2017-09-11T10:33:13.572Z,4.03
2017-09-11T10:35:39.790Z,3.07
2017-09-11T10:38:06.025Z,3.43
2017-09-11T10:40:32.251Z,4.90
2017-09-11T10:42:58.501Z,4.27
2017-09-11T10:45:24.714Z,3.60
2017-09-11T10:47:50.934Z,4.20
2017-09-11T10:50:17.180Z,4.50
2017-09-11T10:52:43.408Z,5.20
2017-09-11T10:55:09.629Z,4.10
2017-09-11T10:57:35.866Z,4.03
2017-09-11T11:00:02.097Z,4.10
2017-09-11T11:02:28.337Z,3.80
2017-09-11T11:04:54.545Z,3.60
2017-09-11T11:07:20.766Z,3.80
2017-09-11T11:09:47.007Z,5.30
2017-09-11T11:12:13.231Z,4.40
2017-09-11T11:14:39.462Z,4.03
2017-09-11T11:17:05.702Z,5.57
2017-09-11T11:19:31.933Z,4.70
2017-09-11T11:21:58.161Z,5.40
2017-09-11T11:24:24.395Z,4.50
2017-09-11T11:26:50.750Z,4.60
2017-09-11T11:29:16.959Z,5.17
2017-09-11T11:31:43.175Z,4.87
2017-09-11T11:34:09.423Z,4.97
2017-09-11T11:36:35.647Z,4.47
2017-09-11T11:39:01.901Z,5.07
2017-09-11T11:41:28.116Z,3.87
2017-09-11T11:43:54.323Z,3.70
2017-09-11T11:46:20.604Z,3.80
2017-09-11T11:48:46.786Z,4.27
2017-09-11T11:51:13.036Z,4.53
2017-09-11T11:53:39.253Z,3.80
2017-09-11T11:56:05.484Z,4.67
2017-09-11T11:58:31.713Z,4.20
2017-09-11T12:00:57.942Z,3.43
2017-09-11T12:03:24.182Z,3.47
2017-09-11T12:05:50.397Z,3.67
2017-09-11T12:08:16.643Z,4.20
2017-09-11T12:10:42.815Z,3.30
2017-09-11T12:13:08.994Z,4.50
2017-09-11T12:15:35.215Z,4.20
2017-09-11T12:18:01.441Z,3.90
2017-09-11T12:20:27.695Z,3.23
2017-09-11T12:22:53.897Z,3.93
2017-09-11T12:25:20.137Z,4.07
2017-09-11T12:27:46.410Z,3.37
2017-09-11T12:30:12.616Z,3.53
2017-09-11T12:32:38.814Z,4.00
2017-09-11T12:35:05.081Z,4.70
2017-09-11T12:37:31.278Z,4.13
2017-09-11T12:39:57.523Z,3.13
2017-09-11T12:42:23.751Z,3.90
2017-09-11T12:44:50.000Z,4.30
2017-09-11T12:47:16.198Z,3.10
2017-09-11T12:49:42.363Z,3.03
2017-09-11T12:52:08.570Z,3.70
2017-09-11T12:54:34.808Z,4.07
2017-09-11T12:57:01.021Z,3.47
2017-09-11T12:59:27.214Z,3.40
2017-09-11T13:01:53.361Z,5.33
2017-09-11T13:04:19.602Z,4.60
2017-09-11T13:06:45.847Z,3.33
2017-09-11T13:09:12.062Z,4.47
2017-09-11T13:11:38.289Z,4.83
2017-09-11T13:14:04.531Z,4.20
2017-09-11T13:16:30.765Z,3.70
2017-09-11T13:18:56.985Z,4.17
2017-09-11T13:21:23.207Z,3.80
2017-09-11T13:23:49.433Z,4.70
2017-09-11T13:26:15.686Z,4.23
2017-09-11T13:28:41.915Z,3.60
2017-09-11T13:31:08.129Z,3.60
2017-09-11T13:33:34.388Z,3.90
2017-09-11T13:36:00.610Z,4.43
2017-09-11T13:38:26.837Z,4.00
2017-09-11T13:40:53.060Z,4.07
2017-09-11T13:43:19.296Z,3.90
2017-09-11T13:45:45.520Z,3.80
2017-09-11T13:48:11.746Z,4.53
2017-09-11T13:50:37.969Z,4.40
2017-09-11T13:53:04.213Z,3.50
2017-09-11T13:55:30.436Z,4.00
2017-09-11T13:57:56.668Z,4.80
2017-09-11T14:00:22.895Z,4.43
2017-09-11T14:02:49.053Z,3.63
2017-09-11T14:05:15.273Z,5.90
2017-09-11T14:07:41.777Z,4.20
2017-09-11T14:10:08.055Z,6.17
2017-09-11T14:12:34.229Z,4.00
2017-09-11T14:15:00.474Z,5.17
2017-09-11T14:17:26.704Z,3.70
2017-09-11T14:19:52.943Z,5.50
2017-09-11T14:22:19.162Z,4.80
2017-09-11T14:24:45.394Z,4.53
2017-09-11T14:27:11.556Z,4.50
2017-09-11T14:29:37.762Z,5.03
2017-09-11T14:32:03.931Z,3.73
2017-09-11T14:34:30.116Z,4.93
2017-09-11T14:36:56.348Z,5.23
2017-09-11T14:39:22.586Z,5.20
2017-09-11T14:41:48.818Z,4.60
2017-09-11T14:44:15.039Z,4.83
2017-09-11T14:46:41.256Z,4.87
2017-09-11T14:49:07.423Z,5.00
2017-09-11T14:51:33.606Z,5.00
2017-09-11T14:53:59.834Z,4.93
2017-09-11T14:56:26.073Z,5.43
2017-09-11T14:58:52.293Z,5.53
2017-09-11T15:01:18.532Z,4.20
2017-09-11T15:03:44.774Z,5.47
2017-09-11T15:06:11.003Z,5.03
2017-09-11T15:08:37.228Z,4.73
2017-09-11T15:11:03.441Z,4.87
2017-09-11T15:13:29.662Z,5.43
2017-09-11T15:16:00.366Z,5.33
2017-09-11T15:18:26.637Z,5.00
2017-09-11T15:20:52.783Z,5.23
2017-09-11T15:23:19.541Z,4.93
2017-09-11T15:25:45.937Z,4.93
2017-09-11T15:28:12.173Z,5.50
2017-09-11T15:30:38.480Z,4.60
2017-09-11T15:33:04.752Z,5.63
2017-09-11T15:35:30.978Z,5.23
2017-09-11T15:37:57.196Z,4.87
2017-09-11T15:40:23.427Z,5.13
2017-09-11T15:42:49.654Z,5.10
2017-09-11T15:45:15.891Z,5.30
2017-09-11T15:47:42.124Z,5.40
2017-09-11T15:50:08.347Z,4.90
2017-09-11T15:52:34.584Z,5.53
2017-09-11T15:55:00.808Z,5.30
2017-09-11T15:57:27.047Z,5.70
2017-09-11T15:59:53.222Z,6.07
2017-09-11T16:02:19.381Z,5.83
2017-09-11T16:04:45.635Z,5.37
2017-09-11T16:07:11.854Z,5.23
2017-09-11T16:09:38.097Z,5.87
2017-09-11T16:12:07.632Z,6.47
2017-09-11T16:14:33.910Z,6.37
2017-09-11T16:19:38.668Z,6.00
2017-09-11T16:22:14.569Z,6.30
2017-09-11T16:24:50.133Z,7.30
2017-09-11T16:27:16.403Z,7.23
2017-09-11T16:29:42.650Z,5.97
2017-09-11T16:32:08.861Z,5.70
2017-09-11T16:34:35.099Z,6.43
2017-09-11T16:37:01.334Z,7.67
2017-09-11T16:39:27.554Z,6.07
2017-09-11T16:41:53.777Z,8.40
2017-09-11T16:44:20.020Z,7.37
2017-09-11T16:46:46.243Z,5.83
2017-09-11T16:49:12.493Z,7.57
2017-09-11T16:51:38.705Z,8.03
2017-09-11T16:54:04.929Z,6.70
2017-09-11T16:56:31.107Z,6.40
2017-09-11T16:58:57.318Z,7.17
2017-09-11T17:01:23.537Z,7.07
2017-09-11T17:03:49.738Z,6.20
2017-09-11T17:06:16.002Z,6.10
2017-09-11T17:08:42.207Z,5.67
2017-09-11T17:11:08.476Z,5.93
2017-09-11T17:13:34.673Z,4.97
2017-09-11T17:16:00.902Z,7.20
2017-09-11T17:18:27.140Z,6.23
2017-09-11T17:20:53.391Z,7.10
2017-09-11T17:23:19.592Z,5.90
2017-09-11T17:25:45.823Z,6.10
2017-09-11T17:28:12.052Z,5.90
2017-09-11T17:30:38.297Z,6.53
2017-09-11T17:33:04.519Z,9.77
2017-09-11T17:35:30.755Z,5.40
2017-09-11T17:37:56.980Z,6.00
2017-09-11T17:40:23.204Z,5.43
2017-09-11T17:42:49.445Z,5.80
2017-09-11T17:45:15.643Z,6.70
2017-09-11T17:47:41.900Z,6.10
2017-09-11T17:50:08.123Z,6.60
2017-09-11T17:52:34.331Z,5.60
2017-09-11T17:55:00.607Z,4.80
2017-09-11T17:57:26.825Z,5.17
2017-09-11T17:59:53.024Z,5.20
2017-09-11T18:02:19.254Z,5.00
2017-09-11T18:04:45.498Z,5.10
2017-09-11T18:07:11.719Z,5.90
2017-09-11T18:09:37.996Z,5.03
2017-09-11T18:12:04.188Z,4.53
2017-09-11T18:14:30.401Z,5.40
2017-09-11T18:16:56.643Z,5.00
2017-09-11T18:19:22.977Z,4.70
2017-09-11T18:21:49.213Z,4.73
2017-09-11T18:24:15.460Z,4.13
2017-09-11T18:26:41.658Z,5.40
2017-09-11T18:29:07.896Z,3.13
2017-09-11T18:31:34.119Z,4.10
2017-09-11T18:34:00.359Z,3.90
2017-09-11T18:36:26.570Z,3.27
2017-09-11T18:38:52.803Z,4.20
2017-09-11T18:41:19.040Z,4.17
2017-09-11T18:43:45.255Z,4.87
2017-09-11T18:46:11.495Z,4.37
2017-09-11T18:48:37.743Z,5.00
2017-09-11T18:51:03.954Z,4.00
2017-09-11T18:53:30.179Z,3.77
2017-09-11T18:55:56.400Z,3.57
2017-09-11T18:58:22.638Z,3.67
2017-09-11T19:00:49.996Z,4.33
2017-09-11T19:03:16.222Z,4.10
2017-09-11T19:05:42.450Z,3.80
2017-09-11T19:08:08.692Z,3.67
2017-09-11T19:10:34.922Z,3.60
2017-09-11T19:13:01.146Z,4.10
2017-09-11T19:15:27.386Z,3.90
2017-09-11T19:17:53.609Z,4.57
2017-09-11T19:20:19.829Z,4.70
2017-09-11T19:22:46.080Z,4.50
2017-09-11T19:25:12.290Z,3.97
2017-09-11T19:27:38.513Z,4.23
2017-09-11T19:30:04.761Z,4.70
2017-09-11T19:32:31.001Z,5.00
2017-09-11T19:34:57.216Z,4.70
2017-09-11T19:37:23.463Z,4.30
2017-09-11T19:39:49.683Z,4.17
2017-09-11T19:42:15.905Z,4.17
2017-09-11T19:44:42.140Z,4.60
2017-09-11T19:47:08.366Z,3.90
2017-09-11T19:49:34.605Z,4.40
2017-09-11T19:52:00.813Z,3.73
2017-09-11T19:54:27.055Z,3.67
2017-09-11T19:56:53.278Z,4.23
2017-09-11T19:59:19.515Z,4.50
2017-09-11T20:01:45.743Z,4.53
2017-09-11T20:04:11.974Z,3.70
2017-09-11T20:06:38.200Z,3.40
2017-09-11T20:09:04.418Z,3.57
2017-09-11T20:11:30.653Z,3.60
2017-09-11T20:13:56.895Z,4.87
2017-09-11T20:16:23.169Z,4.13
2017-09-11T20:18:49.336Z,4.57
2017-09-11T20:21:15.574Z,4.77
2017-09-11T20:23:41.805Z,4.43
2017-09-11T20:26:08.068Z,4.30
2017-09-11T20:28:34.291Z,5.07
2017-09-11T20:31:00.500Z,5.00
2017-09-11T20:33:26.726Z,3.67
2017-09-11T20:35:52.957Z,3.40
2017-09-11T20:38:19.187Z,3.70
2017-09-11T20:40:45.415Z,4.30
2017-09-11T20:43:11.651Z,4.80
2017-09-11T20:45:37.865Z,4.53
2017-09-11T20:48:04.117Z,4.90
2017-09-11T20:50:30.333Z,4.13
2017-09-11T20:52:56.569Z,4.30
2017-09-11T20:55:22.782Z,4.77
2017-09-11T20:57:49.022Z,5.20
2017-09-11T21:00:15.263Z,4.23
2017-09-11T21:02:41.497Z,3.93
2017-09-11T21:05:07.708Z,4.20
2017-09-11T21:07:33.949Z,3.67
2017-09-11T21:10:00.184Z,5.37
2017-09-11T21:12:26.396Z,4.10
2017-09-11T21:14:52.640Z,4.20
2017-09-11T21:17:18.881Z,5.23
2017-09-11T21:19:45.095Z,4.60
2017-09-11T21:22:11.339Z,4.43
2017-09-11T21:24:37.556Z,3.97
2017-09-11T21:27:03.782Z,4.80
2017-09-11T21:29:30.017Z,4.77
2017-09-11T21:31:56.246Z,4.43
2017-09-11T21:34:22.479Z,4.87
2017-09-11T21:36:48.691Z,4.80
2017-09-11T21:39:14.934Z,4.60
2017-09-11T21:41:41.175Z,4.23
2017-09-11T21:44:07.382Z,4.93
2017-09-11T21:46:33.607Z,4.13
2017-09-11T21:48:59.851Z,4.80
2017-09-11T21:51:26.085Z,6.83
2017-09-11T21:53:52.315Z,5.50
2017-09-11T21:56:18.536Z,5.00
2017-09-11T21:58:44.782Z,5.27
2017-09-11T22:01:11.006Z,4.77
2017-09-11T22:03:37.229Z,4.97
2017-09-11T22:06:03.465Z,4.90
2017-09-11T22:08:29.703Z,4.53
2017-09-11T22:10:55.914Z,4.40
2017-09-11T22:13:22.132Z,4.50
2017-09-11T22:15:48.376Z,4.93
2017-09-11T22:18:14.600Z,4.20
2017-09-11T22:20:40.835Z,4.90
2017-09-11T22:23:07.069Z,5.40
2017-09-11T22:25:33.294Z,5.30
2017-09-11T22:27:59.511Z,5.00
2017-09-11T22:30:25.749Z,4.47
2017-09-11T22:32:51.989Z,4.63
2017-09-11T22:35:18.214Z,5.20
2017-09-11T22:37:44.434Z,4.70
2017-09-11T22:40:10.664Z,4.20
2017-09-11T22:42:36.891Z,5.13
2017-09-11T22:45:03.142Z,5.10
2017-09-11T22:47:29.354Z,4.70
2017-09-11T22:49:55.646Z,4.90
2017-09-11T22:52:21.818Z,5.00
2017-09-11T22:54:48.049Z,4.73
2017-09-11T22:57:14.279Z,4.37
2017-09-11T22:59:40.506Z,4.53
2017-09-11T23:02:06.751Z,5.33
2017-09-11T23:04:32.969Z,4.37
2017-09-11T23:06:59.193Z,4.90
2017-09-11T23:09:25.419Z,4.03
2017-09-11T23:11:51.659Z,3.83
2017-09-11T23:14:17.891Z,4.70
2017-09-11T23:16:44.120Z,5.60
2017-09-11T23:19:10.342Z,4.83
2017-09-11T23:21:36.573Z,3.30
2017-09-11T23:24:02.805Z,4.30
2017-09-11T23:26:29.029Z,4.80
2017-09-11T23:28:55.261Z,3.90
2017-09-11T23:31:21.492Z,3.93
2017-09-11T23:33:47.725Z,5.10
2017-09-11T23:36:13.942Z,4.30
2017-09-11T23:38:40.195Z,4.80
2017-09-11T23:41:06.405Z,3.87
2017-09-11T23:43:32.634Z,4.53
2017-09-11T23:45:58.871Z,4.40
2017-09-11T23:48:25.119Z,5.20
2017-09-11T23:50:51.329Z,5.13
2017-09-11T23:53:17.552Z,4.27
2017-09-11T23:55:43.790Z,4.53
2017-09-11T23:58:10.014Z,4.80
